sensor_id;sensor_type;location;lat;lon;timestamp;temperature;humidity
24468;DHT22;12634;50.852;5.676;2023-04-01T00:01:43;10.10;99.90
24468;DHT22;12634;50.852;5.676;2023-04-01T00:04:10;10.00;99.90
24468;DHT22;12634;50.852;5.676;2023-04-01T00:06:38;10.00;99.90
24468;DHT22;12634;50.852;5.676;2023-04-01T00:09:05;10.00;99.90
24468;DHT22;12634;50.852;5.676;2023-04-01T00:11:34;10.10;99.90
24468;DHT22;12634;50.852;5.676;2023-04-01T00:14:01;10.10;99.90
24468;DHT22;12634;50.852;5.676;2023-04-01T00:16:28;10.00;99.90
24468;DHT22;12634;50.852;5.676;2023-04-01T00:18:55;10.00;99.90
24468;DHT22;12634;50.852;5.676;2023-04-01T00:21:22;10.00;99.90
24468;DHT22;12634;50.852;5.676;2023-04-01T00:23:50;10.00;99.90
24468;DHT22;12634;50.852;5.676;2023-04-01T00:26:18;10.00;99.90
24468;DHT22;12634;50.852;5.676;2023-04-01T00:28:48;10.10;99.90
24468;DHT22;12634;50.852;5.676;2023-04-01T00:31:16;10.10;99.90
24468;DHT22;12634;50.852;5.676;2023-04-01T00:33:43;10.10;99.90
24468;DHT22;12634;50.852;5.676;2023-04-01T00:36:13;10.10;99.90
24468;DHT22;12634;50.852;5.676;2023-04-01T00:38:41;10.10;99.90
24468;DHT22;12634;50.852;5.676;2023-04-01T00:41:10;10.10;99.90
24468;DHT22;12634;50.852;5.676;2023-04-01T00:43:40;10.10;99.90
24468;DHT22;12634;50.852;5.676;2023-04-01T00:46:09;10.10;99.90
24468;DHT22;12634;50.852;5.676;2023-04-01T00:48:39;10.00;99.90
24468;DHT22;12634;50.852;5.676;2023-04-01T00:51:10;10.00;99.90
24468;DHT22;12634;50.852;5.676;2023-04-01T00:53:40;10.00;99.90
24468;DHT22;12634;50.852;5.676;2023-04-01T00:56:12;10.00;99.90
24468;DHT22;12634;50.852;5.676;2023-04-01T00:58:44;10.10;99.90
24468;DHT22;12634;50.852;5.676;2023-04-01T01:01:14;10.00;99.90
24468;DHT22;12634;50.852;5.676;2023-04-01T01:03:42;10.00;99.90
24468;DHT22;12634;50.852;5.676;2023-04-01T01:06:14;10.00;99.90
24468;DHT22;12634;50.852;5.676;2023-04-01T01:09:03;10.00;99.90
24468;DHT22;12634;50.852;5.676;2023-04-01T01:11:37;10.00;99.90
24468;DHT22;12634;50.852;5.676;2023-04-01T01:14:14;10.00;99.90
24468;DHT22;12634;50.852;5.676;2023-04-01T01:16:53;10.00;99.90
24468;DHT22;12634;50.852;5.676;2023-04-01T01:19:45;10.00;99.90
24468;DHT22;12634;50.852;5.676;2023-04-01T01:22:44;9.90;99.90
24468;DHT22;12634;50.852;5.676;2023-04-01T01:25:22;10.00;99.90
24468;DHT22;12634;50.852;5.676;2023-04-01T01:28:07;10.00;99.90
24468;DHT22;12634;50.852;5.676;2023-04-01T01:30:48;10.00;99.90
24468;DHT22;12634;50.852;5.676;2023-04-01T01:33:34;9.90;99.90
24468;DHT22;12634;50.852;5.676;2023-04-01T01:36:06;9.90;99.90
24468;DHT22;12634;50.852;5.676;2023-04-01T01:38:36;10.00;99.90
24468;DHT22;12634;50.852;5.676;2023-04-01T01:41:05;9.90;99.90
24468;DHT22;12634;50.852;5.676;2023-04-01T01:43:36;9.90;99.90
24468;DHT22;12634;50.852;5.676;2023-04-01T01:46:07;9.90;99.90
24468;DHT22;12634;50.852;5.676;2023-04-01T01:48:37;9.90;99.90
24468;DHT22;12634;50.852;5.676;2023-04-01T01:51:07;9.90;99.90
24468;DHT22;12634;50.852;5.676;2023-04-01T01:53:35;9.90;99.90
24468;DHT22;12634;50.852;5.676;2023-04-01T01:56:02;9.90;99.90
24468;DHT22;12634;50.852;5.676;2023-04-01T01:58:32;9.90;99.90
24468;DHT22;12634;50.852;5.676;2023-04-01T02:01:02;9.90;99.90
24468;DHT22;12634;50.852;5.676;2023-04-01T02:03:33;9.90;99.90
24468;DHT22;12634;50.852;5.676;2023-04-01T02:06:03;10.00;99.90
24468;DHT22;12634;50.852;5.676;2023-04-01T02:08:35;10.00;99.90
24468;DHT22;12634;50.852;5.676;2023-04-01T02:11:05;9.90;99.90
24468;DHT22;12634;50.852;5.676;2023-04-01T02:13:37;10.00;99.90
24468;DHT22;12634;50.852;5.676;2023-04-01T02:16:10;10.00;99.90
24468;DHT22;12634;50.852;5.676;2023-04-01T02:18:38;10.00;99.90
24468;DHT22;12634;50.852;5.676;2023-04-01T02:21:07;10.00;99.90
24468;DHT22;12634;50.852;5.676;2023-04-01T02:23:38;10.00;99.90
24468;DHT22;12634;50.852;5.676;2023-04-01T02:26:07;10.00;99.90
24468;DHT22;12634;50.852;5.676;2023-04-01T02:28:37;10.00;99.90
24468;DHT22;12634;50.852;5.676;2023-04-01T02:31:06;10.00;99.90
24468;DHT22;12634;50.852;5.676;2023-04-01T02:33:36;10.10;99.90
24468;DHT22;12634;50.852;5.676;2023-04-01T02:36:04;10.10;99.90
24468;DHT22;12634;50.852;5.676;2023-04-01T02:38:31;10.10;99.90
24468;DHT22;12634;50.852;5.676;2023-04-01T02:41:01;10.10;99.90
24468;DHT22;12634;50.852;5.676;2023-04-01T02:43:30;10.10;99.90
24468;DHT22;12634;50.852;5.676;2023-04-01T02:45:58;10.10;99.90
24468;DHT22;12634;50.852;5.676;2023-04-01T02:48:25;10.10;99.90
24468;DHT22;12634;50.852;5.676;2023-04-01T02:50:52;10.10;99.90
24468;DHT22;12634;50.852;5.676;2023-04-01T02:53:19;10.10;99.90
24468;DHT22;12634;50.852;5.676;2023-04-01T02:55:47;10.10;99.90
24468;DHT22;12634;50.852;5.676;2023-04-01T02:58:17;10.10;99.90
24468;DHT22;12634;50.852;5.676;2023-04-01T03:00:45;10.10;99.90
24468;DHT22;12634;50.852;5.676;2023-04-01T03:03:12;10.10;99.90
24468;DHT22;12634;50.852;5.676;2023-04-01T03:05:39;10.20;99.90
24468;DHT22;12634;50.852;5.676;2023-04-01T03:08:07;10.20;99.90
24468;DHT22;12634;50.852;5.676;2023-04-01T03:10:34;10.20;99.90
24468;DHT22;12634;50.852;5.676;2023-04-01T03:13:01;10.20;99.90
24468;DHT22;12634;50.852;5.676;2023-04-01T03:15:30;10.20;99.90
24468;DHT22;12634;50.852;5.676;2023-04-01T03:17:57;10.10;99.90
24468;DHT22;12634;50.852;5.676;2023-04-01T03:20:24;10.20;99.90
24468;DHT22;12634;50.852;5.676;2023-04-01T03:22:51;10.20;99.90
24468;DHT22;12634;50.852;5.676;2023-04-01T03:25:18;10.20;99.90
24468;DHT22;12634;50.852;5.676;2023-04-01T03:27:46;10.10;99.90
24468;DHT22;12634;50.852;5.676;2023-04-01T03:30:13;10.10;99.90
24468;DHT22;12634;50.852;5.676;2023-04-01T03:32:41;10.20;99.90
24468;DHT22;12634;50.852;5.676;2023-04-01T03:35:09;10.10;99.90
24468;DHT22;12634;50.852;5.676;2023-04-01T03:37:36;10.20;99.90
24468;DHT22;12634;50.852;5.676;2023-04-01T03:40:05;10.20;99.90
24468;DHT22;12634;50.852;5.676;2023-04-01T03:42:32;10.20;99.90
24468;DHT22;12634;50.852;5.676;2023-04-01T03:45:00;10.20;99.90
24468;DHT22;12634;50.852;5.676;2023-04-01T03:47:28;10.30;99.90
24468;DHT22;12634;50.852;5.676;2023-04-01T03:49:56;10.20;99.90
24468;DHT22;12634;50.852;5.676;2023-04-01T03:52:23;10.20;99.90
24468;DHT22;12634;50.852;5.676;2023-04-01T03:54:51;10.30;99.90
24468;DHT22;12634;50.852;5.676;2023-04-01T03:57:18;10.30;99.90
24468;DHT22;12634;50.852;5.676;2023-04-01T03:59:45;10.30;99.90
24468;DHT22;12634;50.852;5.676;2023-04-01T04:02:12;10.30;99.90
24468;DHT22;12634;50.852;5.676;2023-04-01T04:04:39;10.30;99.90
24468;DHT22;12634;50.852;5.676;2023-04-01T04:07:08;10.30;99.90
24468;DHT22;12634;50.852;5.676;2023-04-01T04:09:35;10.30;99.90
24468;DHT22;12634;50.852;5.676;2023-04-01T04:12:02;10.30;99.90
24468;DHT22;12634;50.852;5.676;2023-04-01T04:14:31;10.20;99.90
24468;DHT22;12634;50.852;5.676;2023-04-01T04:16:58;10.20;99.90
24468;DHT22;12634;50.852;5.676;2023-04-01T04:19:25;10.20;99.90
24468;DHT22;12634;50.852;5.676;2023-04-01T04:21:52;10.20;99.90
24468;DHT22;12634;50.852;5.676;2023-04-01T04:24:21;10.10;99.90
24468;DHT22;12634;50.852;5.676;2023-04-01T04:26:48;10.10;99.90
24468;DHT22;12634;50.852;5.676;2023-04-01T04:29:15;10.20;99.90
24468;DHT22;12634;50.852;5.676;2023-04-01T04:31:42;10.10;99.90
24468;DHT22;12634;50.852;5.676;2023-04-01T04:34:09;10.10;99.90
24468;DHT22;12634;50.852;5.676;2023-04-01T04:36:36;10.10;99.90
24468;DHT22;12634;50.852;5.676;2023-04-01T04:39:03;10.10;99.90
24468;DHT22;12634;50.852;5.676;2023-04-01T04:41:32;10.10;99.90
24468;DHT22;12634;50.852;5.676;2023-04-01T04:43:59;10.10;99.90
24468;DHT22;12634;50.852;5.676;2023-04-01T04:46:26;10.10;99.90
24468;DHT22;12634;50.852;5.676;2023-04-01T04:48:53;10.10;99.90
24468;DHT22;12634;50.852;5.676;2023-04-01T04:51:21;10.10;99.90
24468;DHT22;12634;50.852;5.676;2023-04-01T04:53:48;10.10;99.90
24468;DHT22;12634;50.852;5.676;2023-04-01T04:56:17;10.20;99.90
24468;DHT22;12634;50.852;5.676;2023-04-01T04:58:46;10.20;99.90
24468;DHT22;12634;50.852;5.676;2023-04-01T05:01:16;10.20;99.90
24468;DHT22;12634;50.852;5.676;2023-04-01T05:03:43;10.20;99.90
24468;DHT22;12634;50.852;5.676;2023-04-01T05:06:13;10.20;99.90
24468;DHT22;12634;50.852;5.676;2023-04-01T05:08:41;10.20;99.90
24468;DHT22;12634;50.852;5.676;2023-04-01T05:11:10;10.20;99.90
24468;DHT22;12634;50.852;5.676;2023-04-01T05:13:38;10.20;99.90
24468;DHT22;12634;50.852;5.676;2023-04-01T05:16:09;10.20;99.90
24468;DHT22;12634;50.852;5.676;2023-04-01T05:18:37;10.20;99.90
24468;DHT22;12634;50.852;5.676;2023-04-01T05:21:06;10.20;99.90
24468;DHT22;12634;50.852;5.676;2023-04-01T05:23:34;10.20;99.90
24468;DHT22;12634;50.852;5.676;2023-04-01T05:26:03;10.10;99.90
24468;DHT22;12634;50.852;5.676;2023-04-01T05:28:30;10.10;99.90
24468;DHT22;12634;50.852;5.676;2023-04-01T05:30:58;10.10;99.90
24468;DHT22;12634;50.852;5.676;2023-04-01T05:33:28;10.10;99.90
24468;DHT22;12634;50.852;5.676;2023-04-01T05:35:56;10.10;99.90
24468;DHT22;12634;50.852;5.676;2023-04-01T05:38:31;10.10;99.90
24468;DHT22;12634;50.852;5.676;2023-04-01T05:40:59;10.10;99.90
24468;DHT22;12634;50.852;5.676;2023-04-01T05:43:26;10.10;99.90
24468;DHT22;12634;50.852;5.676;2023-04-01T05:45:53;10.10;99.90
24468;DHT22;12634;50.852;5.676;2023-04-01T05:48:20;10.10;99.90
24468;DHT22;12634;50.852;5.676;2023-04-01T05:50:49;10.10;99.90
24468;DHT22;12634;50.852;5.676;2023-04-01T05:53:16;10.10;99.90
24468;DHT22;12634;50.852;5.676;2023-04-01T05:55:43;10.10;99.90
24468;DHT22;12634;50.852;5.676;2023-04-01T05:58:10;10.10;99.90
24468;DHT22;12634;50.852;5.676;2023-04-01T06:00:38;10.10;99.90
24468;DHT22;12634;50.852;5.676;2023-04-01T06:03:05;10.10;99.90
24468;DHT22;12634;50.852;5.676;2023-04-01T06:05:39;10.10;99.90
24468;DHT22;12634;50.852;5.676;2023-04-01T06:08:12;10.10;99.90
24468;DHT22;12634;50.852;5.676;2023-04-01T06:10:55;10.10;99.90
24468;DHT22;12634;50.852;5.676;2023-04-01T06:13:38;10.10;99.90
24468;DHT22;12634;50.852;5.676;2023-04-01T06:16:13;10.10;99.90
24468;DHT22;12634;50.852;5.676;2023-04-01T06:18:58;10.10;99.90
24468;DHT22;12634;50.852;5.676;2023-04-01T06:21:41;10.10;99.90
24468;DHT22;12634;50.852;5.676;2023-04-01T06:24:31;10.10;99.90
24468;DHT22;12634;50.852;5.676;2023-04-01T06:27:10;10.10;99.90
24468;DHT22;12634;50.852;5.676;2023-04-01T06:29:53;10.10;99.90
24468;DHT22;12634;50.852;5.676;2023-04-01T06:32:42;10.10;99.90
24468;DHT22;12634;50.852;5.676;2023-04-01T06:38:29;10.10;99.90
24468;DHT22;12634;50.852;5.676;2023-04-01T06:41:27;10.10;99.90
24468;DHT22;12634;50.852;5.676;2023-04-01T06:44:08;10.20;99.90
24468;DHT22;12634;50.852;5.676;2023-04-01T06:46:44;10.20;99.90
24468;DHT22;12634;50.852;5.676;2023-04-01T06:49:26;10.30;99.90
24468;DHT22;12634;50.852;5.676;2023-04-01T06:52:01;10.30;99.90
24468;DHT22;12634;50.852;5.676;2023-04-01T06:54:35;10.40;99.90
24468;DHT22;12634;50.852;5.676;2023-04-01T06:57:12;10.40;99.90
24468;DHT22;12634;50.852;5.676;2023-04-01T06:59:45;10.40;99.90
24468;DHT22;12634;50.852;5.676;2023-04-01T07:02:22;10.40;99.90
24468;DHT22;12634;50.852;5.676;2023-04-01T07:04:51;10.40;99.90
24468;DHT22;12634;50.852;5.676;2023-04-01T07:07:26;10.40;99.90
24468;DHT22;12634;50.852;5.676;2023-04-01T07:09:57;10.40;99.90
24468;DHT22;12634;50.852;5.676;2023-04-01T07:12:37;10.40;99.90
24468;DHT22;12634;50.852;5.676;2023-04-01T07:15:15;10.40;99.90
24468;DHT22;12634;50.852;5.676;2023-04-01T07:17:45;10.40;99.90
24468;DHT22;12634;50.852;5.676;2023-04-01T07:20:17;10.40;99.90
24468;DHT22;12634;50.852;5.676;2023-04-01T07:22:48;10.30;99.90
24468;DHT22;12634;50.852;5.676;2023-04-01T07:25:17;10.40;99.90
24468;DHT22;12634;50.852;5.676;2023-04-01T07:27:47;10.30;99.90
24468;DHT22;12634;50.852;5.676;2023-04-01T07:30:16;10.30;99.90
24468;DHT22;12634;50.852;5.676;2023-04-01T07:32:47;10.30;99.90
24468;DHT22;12634;50.852;5.676;2023-04-01T07:35:24;10.30;99.90
24468;DHT22;12634;50.852;5.676;2023-04-01T07:38:13;10.30;99.90
24468;DHT22;12634;50.852;5.676;2023-04-01T07:40:47;10.30;99.90
24468;DHT22;12634;50.852;5.676;2023-04-01T07:43:28;10.30;99.90
24468;DHT22;12634;50.852;5.676;2023-04-01T07:46:03;10.30;99.90
24468;DHT22;12634;50.852;5.676;2023-04-01T07:48:41;10.30;99.90
24468;DHT22;12634;50.852;5.676;2023-04-01T07:51:13;10.30;99.90
24468;DHT22;12634;50.852;5.676;2023-04-01T07:53:46;10.30;99.90
24468;DHT22;12634;50.852;5.676;2023-04-01T07:56:18;10.30;99.90
24468;DHT22;12634;50.852;5.676;2023-04-01T07:58:59;10.30;99.90
24468;DHT22;12634;50.852;5.676;2023-04-01T08:01:34;10.30;99.90
24468;DHT22;12634;50.852;5.676;2023-04-01T08:04:28;10.30;99.90
24468;DHT22;12634;50.852;5.676;2023-04-01T08:07:05;10.40;99.90
24468;DHT22;12634;50.852;5.676;2023-04-01T08:09:40;10.30;99.90
24468;DHT22;12634;50.852;5.676;2023-04-01T08:12:17;10.40;99.90
24468;DHT22;12634;50.852;5.676;2023-04-01T08:14:55;10.30;99.90
24468;DHT22;12634;50.852;5.676;2023-04-01T08:17:31;10.30;99.90
24468;DHT22;12634;50.852;5.676;2023-04-01T08:20:11;10.30;99.90
24468;DHT22;12634;50.852;5.676;2023-04-01T08:22:42;10.30;99.90
24468;DHT22;12634;50.852;5.676;2023-04-01T08:25:16;10.30;99.90
24468;DHT22;12634;50.852;5.676;2023-04-01T08:27:46;10.30;99.90
24468;DHT22;12634;50.852;5.676;2023-04-01T08:30:20;10.30;99.90
24468;DHT22;12634;50.852;5.676;2023-04-01T08:32:51;10.30;99.90
24468;DHT22;12634;50.852;5.676;2023-04-01T08:35:26;10.30;99.90
24468;DHT22;12634;50.852;5.676;2023-04-01T08:37:56;10.40;99.90
24468;DHT22;12634;50.852;5.676;2023-04-01T08:40:57;10.40;99.90
24468;DHT22;12634;50.852;5.676;2023-04-01T08:52:35;10.50;99.90
24468;DHT22;12634;50.852;5.676;2023-04-01T08:55:30;10.50;99.90
24468;DHT22;12634;50.852;5.676;2023-04-01T08:58:17;10.50;99.90
24468;DHT22;12634;50.852;5.676;2023-04-01T09:00:52;10.50;99.90
24468;DHT22;12634;50.852;5.676;2023-04-01T09:03:35;10.50;99.90
24468;DHT22;12634;50.852;5.676;2023-04-01T09:06:42;10.50;99.90
24468;DHT22;12634;50.852;5.676;2023-04-01T09:09:40;10.50;99.90
24468;DHT22;12634;50.852;5.676;2023-04-01T09:18:32;10.40;99.90
24468;DHT22;12634;50.852;5.676;2023-04-01T09:21:24;10.60;99.90
24468;DHT22;12634;50.852;5.676;2023-04-01T09:24:40;10.40;99.90
24468;DHT22;12634;50.852;5.676;2023-04-01T09:27:25;10.50;99.90
24468;DHT22;12634;50.852;5.676;2023-04-01T09:30:33;10.50;99.90
24468;DHT22;12634;50.852;5.676;2023-04-01T09:33:17;10.50;99.90
24468;DHT22;12634;50.852;5.676;2023-04-01T09:36:03;10.50;99.90
24468;DHT22;12634;50.852;5.676;2023-04-01T09:38:38;10.40;99.90
24468;DHT22;12634;50.852;5.676;2023-04-01T09:41:21;10.50;99.90
24468;DHT22;12634;50.852;5.676;2023-04-01T09:44:12;10.40;99.90
24468;DHT22;12634;50.852;5.676;2023-04-01T09:46:55;10.50;99.90
24468;DHT22;12634;50.852;5.676;2023-04-01T09:49:43;10.50;99.90
24468;DHT22;12634;50.852;5.676;2023-04-01T09:52:27;10.50;99.90
24468;DHT22;12634;50.852;5.676;2023-04-01T09:55:14;10.40;99.90
24468;DHT22;12634;50.852;5.676;2023-04-01T09:58:23;10.40;99.90
24468;DHT22;12634;50.852;5.676;2023-04-01T10:01:19;10.40;99.90
24468;DHT22;12634;50.852;5.676;2023-04-01T10:07:44;10.50;99.90
24468;DHT22;12634;50.852;5.676;2023-04-01T10:10:42;10.70;99.90
24468;DHT22;12634;50.852;5.676;2023-04-01T10:13:34;10.70;99.90
24468;DHT22;12634;50.852;5.676;2023-04-01T10:16:30;10.80;99.90
24468;DHT22;12634;50.852;5.676;2023-04-01T10:19:18;11.00;99.90
24468;DHT22;12634;50.852;5.676;2023-04-01T10:22:21;10.90;99.90
24468;DHT22;12634;50.852;5.676;2023-04-01T10:25:10;10.80;99.90
24468;DHT22;12634;50.852;5.676;2023-04-01T10:28:08;11.00;99.90
24468;DHT22;12634;50.852;5.676;2023-04-01T10:30:58;11.00;99.90
24468;DHT22;12634;50.852;5.676;2023-04-01T10:36:51;10.80;99.90
24468;DHT22;12634;50.852;5.676;2023-04-01T10:39:43;10.90;99.90
24468;DHT22;12634;50.852;5.676;2023-04-01T10:45:57;10.70;99.90
24468;DHT22;12634;50.852;5.676;2023-04-01T10:51:44;10.80;99.90
24468;DHT22;12634;50.852;5.676;2023-04-01T10:54:43;10.80;99.90
24468;DHT22;12634;50.852;5.676;2023-04-01T10:57:35;10.80;99.90
24468;DHT22;12634;50.852;5.676;2023-04-01T11:00:48;10.80;99.90
24468;DHT22;12634;50.852;5.676;2023-04-01T11:04:04;10.70;99.90
24468;DHT22;12634;50.852;5.676;2023-04-01T11:13:24;10.90;99.90
24468;DHT22;12634;50.852;5.676;2023-04-01T11:22:24;11.00;99.90
24468;DHT22;12634;50.852;5.676;2023-04-01T11:28:22;10.90;99.90
24468;DHT22;12634;50.852;5.676;2023-04-01T11:31:04;10.90;99.90
24468;DHT22;12634;50.852;5.676;2023-04-01T11:33:42;10.90;99.90
24468;DHT22;12634;50.852;5.676;2023-04-01T11:36:19;10.90;99.90
24468;DHT22;12634;50.852;5.676;2023-04-01T11:39:08;10.90;99.90
24468;DHT22;12634;50.852;5.676;2023-04-01T11:41:41;10.90;99.90
24468;DHT22;12634;50.852;5.676;2023-04-01T11:44:20;10.80;99.90
24468;DHT22;12634;50.852;5.676;2023-04-01T11:47:13;10.90;99.90
24468;DHT22;12634;50.852;5.676;2023-04-01T11:49:53;11.00;99.90
24468;DHT22;12634;50.852;5.676;2023-04-01T11:52:50;11.00;99.90
24468;DHT22;12634;50.852;5.676;2023-04-01T11:55:25;11.00;99.90
24468;DHT22;12634;50.852;5.676;2023-04-01T11:58:22;11.00;99.90
24468;DHT22;12634;50.852;5.676;2023-04-01T12:01:13;11.00;99.90
24468;DHT22;12634;50.852;5.676;2023-04-01T12:04:16;11.30;99.90
24468;DHT22;12634;50.852;5.676;2023-04-01T12:06:53;11.30;99.90
24468;DHT22;12634;50.852;5.676;2023-04-01T12:09:30;11.10;99.90
24468;DHT22;12634;50.852;5.676;2023-04-01T12:12:13;11.30;99.90
24468;DHT22;12634;50.852;5.676;2023-04-01T12:14:48;11.10;99.90
24468;DHT22;12634;50.852;5.676;2023-04-01T12:17:30;11.00;99.90
24468;DHT22;12634;50.852;5.676;2023-04-01T12:20:18;11.00;99.90
24468;DHT22;12634;50.852;5.676;2023-04-01T12:22:55;11.00;99.90
24468;DHT22;12634;50.852;5.676;2023-04-01T12:25:43;11.10;99.90
24468;DHT22;12634;50.852;5.676;2023-04-01T12:28:22;11.00;99.90
24468;DHT22;12634;50.852;5.676;2023-04-01T12:31:04;11.00;99.90
24468;DHT22;12634;50.852;5.676;2023-04-01T12:33:52;10.80;99.90
24468;DHT22;12634;50.852;5.676;2023-04-01T12:36:32;10.70;99.90
24468;DHT22;12634;50.852;5.676;2023-04-01T12:39:33;10.80;99.90
24468;DHT22;12634;50.852;5.676;2023-04-01T12:42:15;10.90;99.90
24468;DHT22;12634;50.852;5.676;2023-04-01T12:45:01;10.90;99.90
24468;DHT22;12634;50.852;5.676;2023-04-01T12:47:57;10.80;99.90
24468;DHT22;12634;50.852;5.676;2023-04-01T12:50:34;10.90;99.90
24468;DHT22;12634;50.852;5.676;2023-04-01T12:53:23;10.90;99.90
24468;DHT22;12634;50.852;5.676;2023-04-01T12:55:57;11.00;99.90
24468;DHT22;12634;50.852;5.676;2023-04-01T12:58:57;10.90;99.90
24468;DHT22;12634;50.852;5.676;2023-04-01T13:01:55;10.90;99.90
24468;DHT22;12634;50.852;5.676;2023-04-01T13:04:55;10.90;99.90
24468;DHT22;12634;50.852;5.676;2023-04-01T13:10:17;11.10;99.90
24468;DHT22;12634;50.852;5.676;2023-04-01T13:13:20;11.00;99.90
24468;DHT22;12634;50.852;5.676;2023-04-01T13:15:52;10.90;99.90
24468;DHT22;12634;50.852;5.676;2023-04-01T13:18:31;11.00;99.90
24468;DHT22;12634;50.852;5.676;2023-04-01T13:21:08;11.00;99.90
24468;DHT22;12634;50.852;5.676;2023-04-01T13:23:48;10.90;99.90
24468;DHT22;12634;50.852;5.676;2023-04-01T13:26:21;10.90;99.90
24468;DHT22;12634;50.852;5.676;2023-04-01T13:28:53;10.90;99.90
24468;DHT22;12634;50.852;5.676;2023-04-01T13:31:40;10.90;99.90
24468;DHT22;12634;50.852;5.676;2023-04-01T13:34:15;10.80;99.90
24468;DHT22;12634;50.852;5.676;2023-04-01T13:36:56;10.90;99.90
24468;DHT22;12634;50.852;5.676;2023-04-01T13:39:46;11.00;99.90
24468;DHT22;12634;50.852;5.676;2023-04-01T13:42:21;10.80;99.90
24468;DHT22;12634;50.852;5.676;2023-04-01T13:44:53;10.80;99.90
24468;DHT22;12634;50.852;5.676;2023-04-01T13:47:41;10.90;99.90
24468;DHT22;12634;50.852;5.676;2023-04-01T13:50:31;10.90;99.90
24468;DHT22;12634;50.852;5.676;2023-04-01T13:53:21;10.90;99.90
24468;DHT22;12634;50.852;5.676;2023-04-01T13:55:57;11.00;99.90
24468;DHT22;12634;50.852;5.676;2023-04-01T14:01:41;11.30;99.90
24468;DHT22;12634;50.852;5.676;2023-04-01T14:04:39;11.40;99.90
24468;DHT22;12634;50.852;5.676;2023-04-01T14:07:31;11.60;99.90
24468;DHT22;12634;50.852;5.676;2023-04-01T14:10:08;11.90;99.90
24468;DHT22;12634;50.852;5.676;2023-04-01T14:12:44;11.80;99.90
24468;DHT22;12634;50.852;5.676;2023-04-01T14:15:23;11.40;99.90
24468;DHT22;12634;50.852;5.676;2023-04-01T14:18:04;11.20;99.90
24468;DHT22;12634;50.852;5.676;2023-04-01T14:20:40;11.30;99.90
24468;DHT22;12634;50.852;5.676;2023-04-01T14:23:41;11.30;99.90
24468;DHT22;12634;50.852;5.676;2023-04-01T14:26:35;11.40;99.90
24468;DHT22;12634;50.852;5.676;2023-04-01T14:29:18;11.50;99.90
24468;DHT22;12634;50.852;5.676;2023-04-01T14:31:55;11.30;99.90
24468;DHT22;12634;50.852;5.676;2023-04-01T14:34:38;11.10;99.90
24468;DHT22;12634;50.852;5.676;2023-04-01T14:37:27;11.00;99.90
24468;DHT22;12634;50.852;5.676;2023-04-01T14:40:26;11.00;99.90
24468;DHT22;12634;50.852;5.676;2023-04-01T14:43:10;11.10;99.90
24468;DHT22;12634;50.852;5.676;2023-04-01T14:46:19;10.90;99.90
24468;DHT22;12634;50.852;5.676;2023-04-01T14:48:52;10.90;99.90
24468;DHT22;12634;50.852;5.676;2023-04-01T14:51:28;11.00;99.90
24468;DHT22;12634;50.852;5.676;2023-04-01T14:54:03;11.10;99.90
24468;DHT22;12634;50.852;5.676;2023-04-01T14:56:42;11.10;99.90
24468;DHT22;12634;50.852;5.676;2023-04-01T14:59:25;11.00;99.90
24468;DHT22;12634;50.852;5.676;2023-04-01T15:01:58;10.90;99.90
24468;DHT22;12634;50.852;5.676;2023-04-01T15:04:56;10.90;99.90
24468;DHT22;12634;50.852;5.676;2023-04-01T15:07:45;10.90;99.90
24468;DHT22;12634;50.852;5.676;2023-04-01T15:10:27;11.00;99.90
24468;DHT22;12634;50.852;5.676;2023-04-01T15:13:04;11.00;99.90
24468;DHT22;12634;50.852;5.676;2023-04-01T15:15:54;11.00;99.90
24468;DHT22;12634;50.852;5.676;2023-04-01T15:18:33;11.00;99.90
24468;DHT22;12634;50.852;5.676;2023-04-01T15:21:19;10.90;99.90
24468;DHT22;12634;50.852;5.676;2023-04-01T15:23:57;10.90;99.90
24468;DHT22;12634;50.852;5.676;2023-04-01T15:26:42;10.70;99.90
24468;DHT22;12634;50.852;5.676;2023-04-01T15:29:28;10.60;99.90
24468;DHT22;12634;50.852;5.676;2023-04-01T15:32:02;10.60;99.90
24468;DHT22;12634;50.852;5.676;2023-04-01T15:34:40;10.70;99.90
24468;DHT22;12634;50.852;5.676;2023-04-01T15:37:15;10.60;99.90
24468;DHT22;12634;50.852;5.676;2023-04-01T15:39:54;10.70;99.90
24468;DHT22;12634;50.852;5.676;2023-04-01T15:42:45;10.70;99.90
24468;DHT22;12634;50.852;5.676;2023-04-01T15:45:22;10.70;99.90
24468;DHT22;12634;50.852;5.676;2023-04-01T15:48:06;10.80;99.90
24468;DHT22;12634;50.852;5.676;2023-04-01T15:50:52;10.90;99.90
24468;DHT22;12634;50.852;5.676;2023-04-01T15:53:36;10.90;99.90
24468;DHT22;12634;50.852;5.676;2023-04-01T15:56:39;10.80;99.90
24468;DHT22;12634;50.852;5.676;2023-04-01T15:59:19;10.70;99.90
24468;DHT22;12634;50.852;5.676;2023-04-01T16:01:51;10.80;99.90
24468;DHT22;12634;50.852;5.676;2023-04-01T16:04:38;10.80;99.90
24468;DHT22;12634;50.852;5.676;2023-04-01T16:07:26;11.00;99.90
24468;DHT22;12634;50.852;5.676;2023-04-01T16:10:23;10.80;99.90
24468;DHT22;12634;50.852;5.676;2023-04-01T16:13:08;10.70;99.90
24468;DHT22;12634;50.852;5.676;2023-04-01T16:15:41;10.70;99.90
24468;DHT22;12634;50.852;5.676;2023-04-01T16:18:32;10.80;99.90
24468;DHT22;12634;50.852;5.676;2023-04-01T16:21:11;10.90;99.90
24468;DHT22;12634;50.852;5.676;2023-04-01T16:23:42;10.90;99.90
24468;DHT22;12634;50.852;5.676;2023-04-01T16:26:16;10.90;99.90
24468;DHT22;12634;50.852;5.676;2023-04-01T16:28:53;10.90;99.90
24468;DHT22;12634;50.852;5.676;2023-04-01T16:31:34;10.90;99.90
24468;DHT22;12634;50.852;5.676;2023-04-01T16:34:08;10.90;99.90
24468;DHT22;12634;50.852;5.676;2023-04-01T16:36:41;10.90;99.90
24468;DHT22;12634;50.852;5.676;2023-04-01T16:39:27;10.80;99.90
24468;DHT22;12634;50.852;5.676;2023-04-01T16:42:15;10.70;99.90
24468;DHT22;12634;50.852;5.676;2023-04-01T16:44:50;10.60;99.90
24468;DHT22;12634;50.852;5.676;2023-04-01T16:47:21;10.50;99.90
24468;DHT22;12634;50.852;5.676;2023-04-01T16:49:59;10.50;99.90
24468;DHT22;12634;50.852;5.676;2023-04-01T16:52:40;10.40;99.90
24468;DHT22;12634;50.852;5.676;2023-04-01T16:55:15;10.40;99.90
24468;DHT22;12634;50.852;5.676;2023-04-01T16:57:48;10.40;99.90
24468;DHT22;12634;50.852;5.676;2023-04-01T17:00:21;10.40;99.90
24468;DHT22;12634;50.852;5.676;2023-04-01T17:02:58;10.40;99.90
24468;DHT22;12634;50.852;5.676;2023-04-01T17:05:43;10.40;99.90
24468;DHT22;12634;50.852;5.676;2023-04-01T17:08:21;10.40;99.90
24468;DHT22;12634;50.852;5.676;2023-04-01T17:10:53;10.40;99.90
24468;DHT22;12634;50.852;5.676;2023-04-01T17:13:46;10.40;99.90
24468;DHT22;12634;50.852;5.676;2023-04-01T17:16:46;10.40;99.90
24468;DHT22;12634;50.852;5.676;2023-04-01T17:19:27;10.30;99.90
24468;DHT22;12634;50.852;5.676;2023-04-01T17:22:04;10.20;99.90
24468;DHT22;12634;50.852;5.676;2023-04-01T17:24:51;10.10;99.90
24468;DHT22;12634;50.852;5.676;2023-04-01T17:27:30;10.00;99.90
24468;DHT22;12634;50.852;5.676;2023-04-01T17:30:12;10.00;99.90
24468;DHT22;12634;50.852;5.676;2023-04-01T17:32:55;10.00;99.90